createdAt,value
2017-12-29T00:00:10.433Z,8.40
2017-12-29T00:02:37.902Z,7.07
2017-12-29T00:05:05.342Z,5.83
2017-12-29T00:07:32.804Z,7.37
2017-12-29T00:10:00.254Z,6.13
2017-12-29T00:12:27.719Z,6.63
2017-12-29T00:14:55.154Z,8.23
2017-12-29T00:17:22.634Z,8.23
2017-12-29T00:19:50.106Z,7.07
2017-12-29T00:22:17.529Z,7.10
2017-12-29T00:24:44.985Z,7.90
2017-12-29T00:27:12.426Z,7.73
2017-12-29T00:29:39.890Z,7.87
2017-12-29T00:32:07.342Z,6.90
2017-12-29T00:34:34.796Z,6.47
2017-12-29T00:37:02.234Z,6.73
2017-12-29T00:39:29.699Z,9.37
2017-12-29T00:41:57.137Z,7.97
2017-12-29T00:44:24.605Z,6.80
2017-12-29T00:46:52.079Z,5.83
2017-12-29T00:49:19.539Z,6.57
2017-12-29T00:51:47.006Z,4.60
2017-12-29T00:54:14.442Z,7.00
2017-12-29T00:56:41.901Z,4.53
2017-12-29T00:59:09.379Z,6.50
2017-12-29T01:01:36.843Z,4.23
2017-12-29T01:04:04.290Z,5.87
2017-12-29T01:06:31.786Z,6.40
2017-12-29T01:08:59.238Z,4.67
2017-12-29T01:11:26.699Z,4.47
2017-12-29T01:13:54.168Z,8.47
2017-12-29T01:16:21.617Z,5.67
2017-12-29T01:18:49.078Z,6.50
2017-12-29T01:21:16.513Z,7.13
2017-12-29T01:23:43.966Z,7.57
2017-12-29T01:26:11.401Z,6.53
2017-12-29T01:28:39.413Z,4.90
2017-12-29T01:31:06.845Z,6.57
2017-12-29T01:33:34.298Z,10.50
2017-12-29T01:36:01.764Z,8.47
2017-12-29T01:38:29.211Z,6.37
2017-12-29T01:40:56.677Z,3.83
2017-12-29T01:43:24.118Z,6.60
2017-12-29T01:45:51.681Z,7.73
2017-12-29T01:48:19.149Z,6.90
2017-12-29T01:50:46.629Z,6.20
2017-12-29T01:53:14.074Z,4.40
2017-12-29T01:55:41.541Z,6.70
2017-12-29T01:58:08.981Z,7.07
2017-12-29T02:00:36.449Z,4.70
2017-12-29T02:03:03.889Z,6.17
2017-12-29T02:05:31.326Z,9.37
2017-12-29T02:07:58.785Z,4.67
2017-12-29T02:10:26.221Z,6.63
2017-12-29T02:12:53.682Z,5.77
2017-12-29T02:15:22.229Z,10.67
2017-12-29T02:17:49.690Z,5.80
2017-12-29T02:20:17.138Z,9.87
2017-12-29T02:22:44.595Z,5.13
2017-12-29T02:25:12.043Z,4.37
2017-12-29T02:27:39.507Z,7.23
2017-12-29T02:30:06.965Z,7.30
2017-12-29T02:32:34.422Z,4.13
2017-12-29T02:35:01.882Z,5.23
2017-12-29T02:37:29.326Z,6.20
2017-12-29T02:39:56.782Z,5.03
2017-12-29T02:42:24.225Z,8.87
2017-12-29T02:44:51.706Z,8.10
2017-12-29T02:47:19.151Z,6.63
2017-12-29T02:49:47.461Z,5.50
2017-12-29T02:52:14.897Z,6.20
2017-12-29T02:54:42.342Z,5.13
2017-12-29T02:57:09.810Z,8.67
2017-12-29T02:59:37.252Z,4.13
2017-12-29T03:02:04.710Z,6.00
2017-12-29T03:04:32.146Z,6.30
2017-12-29T03:06:59.607Z,4.23
2017-12-29T03:09:27.050Z,7.53
2017-12-29T03:11:54.510Z,4.90
2017-12-29T03:14:21.941Z,4.67
2017-12-29T03:16:49.373Z,5.67
2017-12-29T03:19:16.838Z,5.00
2017-12-29T03:21:44.281Z,5.73
2017-12-29T03:24:11.746Z,5.83
2017-12-29T03:26:39.177Z,9.73
2017-12-29T03:29:06.633Z,5.13
2017-12-29T03:31:34.074Z,4.50
2017-12-29T03:34:01.536Z,5.80
2017-12-29T03:36:28.978Z,5.20
2017-12-29T03:38:56.418Z,6.90
2017-12-29T03:41:23.882Z,4.23
2017-12-29T03:43:51.317Z,7.90
2017-12-29T03:46:18.769Z,5.73
2017-12-29T03:48:46.232Z,5.77
2017-12-29T03:51:13.693Z,4.20
2017-12-29T03:53:41.130Z,5.10
2017-12-29T03:56:09.781Z,5.80
2017-12-29T03:58:37.222Z,7.43
2017-12-29T04:01:04.674Z,4.83
2017-12-29T04:03:32.140Z,5.07
2017-12-29T04:05:59.585Z,4.73
2017-12-29T04:08:27.037Z,5.27
2017-12-29T04:10:54.478Z,5.37
2017-12-29T04:13:21.946Z,7.00
2017-12-29T04:15:49.391Z,5.57
2017-12-29T04:18:16.869Z,5.73
2017-12-29T04:20:44.309Z,6.47
2017-12-29T04:23:11.760Z,6.03
2017-12-29T04:25:39.220Z,6.90
2017-12-29T04:28:06.662Z,4.40
2017-12-29T04:30:34.126Z,7.63
2017-12-29T04:33:01.557Z,5.37
2017-12-29T04:35:29.030Z,7.20
2017-12-29T04:37:56.470Z,8.07
2017-12-29T04:40:23.914Z,4.00
2017-12-29T04:42:51.377Z,5.73
2017-12-29T04:45:18.809Z,4.87
2017-12-29T04:47:46.274Z,7.87
2017-12-29T04:50:13.718Z,6.57
2017-12-29T04:52:41.181Z,4.93
2017-12-29T04:55:08.631Z,7.00
2017-12-29T04:57:36.102Z,5.10
2017-12-29T05:00:03.542Z,7.90
2017-12-29T05:02:30.982Z,4.63
2017-12-29T05:04:58.462Z,10.63
2017-12-29T05:07:25.901Z,5.97
2017-12-29T05:09:53.358Z,5.63
2017-12-29T05:12:20.870Z,5.63
2017-12-29T05:14:48.336Z,6.00
2017-12-29T05:17:15.790Z,6.00
2017-12-29T05:19:43.270Z,6.63
2017-12-29T05:22:10.710Z,3.87
2017-12-29T05:24:38.153Z,4.53
2017-12-29T05:27:05.609Z,7.90
2017-12-29T05:29:33.050Z,5.27
2017-12-29T05:32:00.505Z,6.33
2017-12-29T05:34:28.002Z,5.67
2017-12-29T05:36:55.462Z,4.40
2017-12-29T05:39:22.895Z,6.40
2017-12-29T05:41:50.334Z,4.53
2017-12-29T05:44:17.790Z,5.67
2017-12-29T05:46:45.232Z,6.17
2017-12-29T05:49:12.702Z,5.80
2017-12-29T05:51:40.150Z,5.33
2017-12-29T05:54:07.613Z,5.67
2017-12-29T05:56:35.052Z,4.20
2017-12-29T05:59:02.518Z,4.23
2017-12-29T06:01:29.966Z,5.70
2017-12-29T06:03:57.442Z,5.07
2017-12-29T06:06:24.890Z,5.73
2017-12-29T06:08:52.337Z,7.00
2017-12-29T06:11:19.798Z,8.30
2017-12-29T06:13:47.244Z,7.17
2017-12-29T06:16:14.701Z,6.47
2017-12-29T06:18:42.140Z,5.87
2017-12-29T06:21:09.606Z,8.10
2017-12-29T06:23:37.042Z,7.17
2017-12-29T06:26:04.514Z,5.53
2017-12-29T06:28:31.953Z,6.83
2017-12-29T06:30:59.410Z,7.17
2017-12-29T06:33:26.850Z,6.50
2017-12-29T06:35:54.329Z,7.03
2017-12-29T06:38:21.766Z,8.57
2017-12-29T06:40:49.209Z,6.13
2017-12-29T06:43:16.667Z,9.63
2017-12-29T06:45:44.111Z,7.63
2017-12-29T06:48:11.578Z,6.07
2017-12-29T06:50:39.018Z,6.77
2017-12-29T06:53:06.489Z,8.63
2017-12-29T06:55:33.930Z,7.07
2017-12-29T06:58:01.386Z,8.53
2017-12-29T07:00:28.837Z,6.50
2017-12-29T07:02:56.294Z,6.83
2017-12-29T07:05:23.737Z,10.73
2017-12-29T07:07:51.197Z,9.20
2017-12-29T07:10:18.632Z,8.50
2017-12-29T07:12:46.094Z,8.67
2017-12-29T07:15:13.535Z,7.63
2017-12-29T07:17:41.000Z,7.97
2017-12-29T07:20:08.454Z,7.40
2017-12-29T07:22:35.917Z,7.70
2017-12-29T07:25:03.365Z,8.87
2017-12-29T07:27:30.825Z,9.10
2017-12-29T07:29:58.261Z,7.97
2017-12-29T07:32:25.717Z,6.93
2017-12-29T07:34:53.162Z,12.63
2017-12-29T07:37:20.625Z,7.87
2017-12-29T07:39:48.057Z,7.97
2017-12-29T07:42:15.506Z,7.93
2017-12-29T07:44:42.947Z,7.90
2017-12-29T07:47:10.410Z,6.97
2017-12-29T07:49:37.850Z,7.73
2017-12-29T07:52:05.336Z,6.90
2017-12-29T07:54:32.829Z,8.83
2017-12-29T07:57:00.242Z,6.73
2017-12-29T07:59:27.694Z,9.43
2017-12-29T08:01:55.309Z,7.10
2017-12-29T08:04:22.767Z,5.90
2017-12-29T08:06:50.206Z,9.80
2017-12-29T08:09:17.661Z,7.50
2017-12-29T08:11:45.103Z,6.47
2017-12-29T08:14:12.566Z,6.13
2017-12-29T08:16:40.022Z,5.83
2017-12-29T08:19:07.477Z,5.80
2017-12-29T08:21:34.918Z,8.50
2017-12-29T08:24:02.378Z,6.50
2017-12-29T08:26:29.826Z,6.33
2017-12-29T08:28:57.297Z,5.63
2017-12-29T08:31:24.737Z,7.97
2017-12-29T08:33:52.193Z,7.47
2017-12-29T08:36:19.638Z,6.97
2017-12-29T08:38:47.102Z,9.57
2017-12-29T08:41:14.542Z,8.53
2017-12-29T08:43:41.998Z,6.87
2017-12-29T08:46:09.446Z,6.90
2017-12-29T08:48:36.902Z,7.10
2017-12-29T08:51:04.345Z,7.20
2017-12-29T08:53:31.809Z,6.53
2017-12-29T08:55:59.278Z,5.50
2017-12-29T08:58:26.733Z,7.10
2017-12-29T09:00:54.182Z,7.43
2017-12-29T09:03:21.646Z,6.50
2017-12-29T09:05:49.102Z,6.00
2017-12-29T09:08:16.574Z,10.53
2017-12-29T09:10:44.021Z,10.53
2017-12-29T09:13:11.494Z,5.93
2017-12-29T09:15:38.942Z,5.77
2017-12-29T09:18:06.382Z,5.37
2017-12-29T09:20:33.841Z,6.23
2017-12-29T09:23:01.281Z,6.47
2017-12-29T09:25:28.757Z,8.57
2017-12-29T09:27:56.198Z,7.07
2017-12-29T09:30:23.657Z,6.77
2017-12-29T09:32:51.104Z,7.80
2017-12-29T09:35:18.561Z,5.53
2017-12-29T09:37:46.002Z,6.40
2017-12-29T09:40:13.474Z,5.23
2017-12-29T09:42:40.919Z,7.10
2017-12-29T09:45:08.386Z,7.50
2017-12-29T09:47:35.830Z,6.53
2017-12-29T09:50:04.018Z,5.33
2017-12-29T09:52:31.487Z,7.77
2017-12-29T09:54:58.942Z,5.90
2017-12-29T09:57:26.386Z,8.47
2017-12-29T09:59:53.851Z,5.10
2017-12-29T10:02:21.295Z,5.23
2017-12-29T10:04:48.762Z,6.30
2017-12-29T10:07:16.202Z,6.43
2017-12-29T10:09:43.658Z,4.30
2017-12-29T10:12:11.094Z,5.50
2017-12-29T10:14:38.557Z,6.33
2017-12-29T10:17:05.998Z,5.83
2017-12-29T10:19:33.458Z,6.37
2017-12-29T10:22:00.894Z,6.57
2017-12-29T10:24:28.354Z,5.67
2017-12-29T10:26:55.794Z,7.50
2017-12-29T10:29:23.255Z,4.97
2017-12-29T10:31:50.710Z,5.30
2017-12-29T10:34:18.183Z,4.93
2017-12-29T10:36:45.622Z,6.70
2017-12-29T10:39:13.064Z,5.60
2017-12-29T10:41:40.530Z,4.87
2017-12-29T10:44:07.969Z,8.43
2017-12-29T10:46:35.425Z,4.77
2017-12-29T10:49:02.869Z,6.87
2017-12-29T10:51:30.329Z,4.53
2017-12-29T10:53:57.776Z,7.03
2017-12-29T10:56:25.242Z,8.80
2017-12-29T10:58:52.682Z,8.00
2017-12-29T11:01:20.141Z,5.63
2017-12-29T11:03:47.582Z,6.47
2017-12-29T11:06:15.042Z,6.27
2017-12-29T11:08:42.479Z,5.93
2017-12-29T11:11:09.959Z,6.63
2017-12-29T11:13:37.402Z,7.73
2017-12-29T11:16:04.862Z,6.37
2017-12-29T11:18:32.302Z,5.80
2017-12-29T11:20:59.784Z,5.80
2017-12-29T11:23:27.226Z,8.77
2017-12-29T11:25:54.714Z,4.90
2017-12-29T11:28:22.176Z,7.03
2017-12-29T11:30:49.625Z,5.13
2017-12-29T11:33:17.075Z,6.97
2017-12-29T11:35:44.534Z,7.00
2017-12-29T11:38:11.975Z,6.93
2017-12-29T11:40:39.430Z,7.33
2017-12-29T11:43:06.879Z,5.57
2017-12-29T11:45:34.342Z,4.60
2017-12-29T11:48:01.783Z,5.83
2017-12-29T11:50:29.247Z,4.20
2017-12-29T11:52:56.694Z,5.83
2017-12-29T11:55:24.171Z,6.20
2017-12-29T11:57:51.610Z,7.30
2017-12-29T12:00:19.082Z,5.17
2017-12-29T12:02:46.546Z,10.17
2017-12-29T12:05:13.990Z,7.97
2017-12-29T12:07:41.449Z,4.37
2017-12-29T12:10:08.890Z,6.27
2017-12-29T12:12:36.358Z,6.57
2017-12-29T12:15:03.805Z,5.93
2017-12-29T12:17:31.272Z,5.47
2017-12-29T12:19:58.714Z,7.10
2017-12-29T12:22:26.178Z,4.50
2017-12-29T12:24:53.617Z,5.73
2017-12-29T12:27:21.083Z,6.87
2017-12-29T12:29:48.525Z,5.77
2017-12-29T12:32:16.034Z,7.47
2017-12-29T12:34:43.476Z,6.67
2017-12-29T12:37:10.934Z,5.70
2017-12-29T12:39:38.369Z,5.87
2017-12-29T12:42:05.834Z,5.60
2017-12-29T12:44:33.282Z,6.07
2017-12-29T12:47:00.738Z,4.17
2017-12-29T12:49:28.186Z,5.53
2017-12-29T12:51:55.647Z,4.90
2017-12-29T12:54:23.096Z,5.07
2017-12-29T12:56:50.562Z,5.90
2017-12-29T12:59:18.013Z,4.73
2017-12-29T13:01:45.475Z,7.13
2017-12-29T13:04:12.918Z,5.37
2017-12-29T13:06:40.387Z,4.10
2017-12-29T13:09:07.830Z,6.70
2017-12-29T13:11:35.322Z,5.50
2017-12-29T13:14:02.757Z,6.17
2017-12-29T13:16:30.226Z,7.40
2017-12-29T13:18:58.598Z,6.43
2017-12-29T13:21:26.039Z,5.33
2017-12-29T13:23:53.502Z,3.63
2017-12-29T13:26:20.956Z,4.27
2017-12-29T13:28:48.418Z,4.30
2017-12-29T13:31:15.858Z,5.20
2017-12-29T13:33:43.326Z,4.30
2017-12-29T13:36:10.776Z,5.90
2017-12-29T13:38:38.233Z,3.93
2017-12-29T13:41:05.665Z,5.77
2017-12-29T13:43:33.121Z,3.83
2017-12-29T13:46:00.567Z,2.60
2017-12-29T13:48:28.030Z,3.77
2017-12-29T13:50:55.479Z,5.63
2017-12-29T13:53:22.946Z,4.37
2017-12-29T13:55:50.386Z,5.03
2017-12-29T13:58:17.845Z,4.57
2017-12-29T14:00:45.282Z,3.53
2017-12-29T14:03:12.747Z,4.70
2017-12-29T14:05:40.187Z,4.03
2017-12-29T14:08:07.637Z,4.40
2017-12-29T14:10:35.080Z,3.53
2017-12-29T14:13:02.541Z,3.60
2017-12-29T14:15:29.986Z,4.53
2017-12-29T14:17:57.450Z,5.37
2017-12-29T14:20:24.885Z,2.87
2017-12-29T14:22:52.341Z,4.70
2017-12-29T14:25:19.785Z,4.80
2017-12-29T14:27:47.246Z,3.03
2017-12-29T14:30:14.684Z,2.30
2017-12-29T14:32:42.150Z,5.47
2017-12-29T14:35:09.587Z,4.53
2017-12-29T14:37:37.053Z,2.77
2017-12-29T14:40:04.489Z,3.00
2017-12-29T14:42:31.926Z,3.03
2017-12-29T14:44:59.640Z,3.17
2017-12-29T14:47:27.113Z,4.17
2017-12-29T14:49:54.573Z,5.10
2017-12-29T14:52:22.006Z,3.27
2017-12-29T14:54:49.465Z,2.80
2017-12-29T14:57:16.912Z,2.67
2017-12-29T14:59:44.450Z,4.27
2017-12-29T15:02:11.895Z,3.17
2017-12-29T15:04:39.729Z,2.57
2017-12-29T15:07:07.644Z,3.90
2017-12-29T15:09:35.154Z,2.97
2017-12-29T15:12:02.602Z,3.57
2017-12-29T15:14:30.062Z,2.80
2017-12-29T15:16:57.519Z,2.73
2017-12-29T15:19:25.010Z,3.60
2017-12-29T15:21:52.541Z,3.73
2017-12-29T15:24:20.016Z,3.20
2017-12-29T15:26:47.463Z,2.40
2017-12-29T15:29:14.961Z,3.77
2017-12-29T15:31:42.407Z,2.60
2017-12-29T15:34:09.863Z,2.83
2017-12-29T15:36:37.302Z,2.40
2017-12-29T15:39:04.762Z,2.30
2017-12-29T15:41:32.194Z,2.37
2017-12-29T15:43:59.661Z,2.37
2017-12-29T15:46:27.309Z,2.63
2017-12-29T15:48:54.777Z,2.23
2017-12-29T15:51:29.697Z,1.83
2017-12-29T15:53:57.169Z,1.80
2017-12-29T15:56:24.633Z,2.47
2017-12-29T15:58:52.096Z,1.90
2017-12-29T16:01:23.046Z,1.43
2017-12-29T16:03:50.547Z,1.90
2017-12-29T16:06:17.962Z,1.20
2017-12-29T16:08:45.409Z,1.27
2017-12-29T16:11:12.874Z,0.93
2017-12-29T16:13:40.319Z,1.43
2017-12-29T16:16:07.784Z,1.13
2017-12-29T16:18:35.232Z,0.80
2017-12-29T16:21:02.699Z,0.77
2017-12-29T16:23:30.148Z,2.20
2017-12-29T16:25:57.606Z,1.47
2017-12-29T16:28:25.042Z,0.83
2017-12-29T16:30:52.502Z,1.30
2017-12-29T16:33:19.943Z,0.80
2017-12-29T16:35:47.401Z,1.30
2017-12-29T16:38:14.842Z,1.30
2017-12-29T16:40:42.301Z,0.90
2017-12-29T16:43:09.741Z,1.70
2017-12-29T16:45:37.201Z,1.20
2017-12-29T16:48:04.654Z,1.00
2017-12-29T16:50:32.126Z,1.77
2017-12-29T16:52:59.566Z,1.07
2017-12-29T16:55:27.026Z,1.03
2017-12-29T16:57:54.471Z,0.70
2017-12-29T17:00:21.933Z,0.60
2017-12-29T17:02:49.369Z,1.00
2017-12-29T17:05:16.834Z,1.03
2017-12-29T17:07:44.291Z,1.17
2017-12-29T17:10:11.757Z,1.03
2017-12-29T17:12:39.198Z,1.33
2017-12-29T17:15:06.678Z,1.30
2017-12-29T17:17:34.139Z,1.30
2017-12-29T17:20:01.602Z,1.83
2017-12-29T17:22:29.047Z,1.70
2017-12-29T17:24:56.529Z,1.43
2017-12-29T17:27:23.969Z,1.50
2017-12-29T17:29:51.413Z,1.00
2017-12-29T17:32:18.870Z,1.23
2017-12-29T17:34:46.317Z,2.53
2017-12-29T17:37:13.779Z,1.50
2017-12-29T17:39:41.226Z,1.40
2017-12-29T17:42:08.694Z,1.53
2017-12-29T17:44:36.138Z,1.70
2017-12-29T17:47:03.601Z,1.40
2017-12-29T17:49:31.161Z,1.10
2017-12-29T17:51:58.611Z,1.77
2017-12-29T17:54:26.063Z,1.20
2017-12-29T17:56:53.523Z,1.97
2017-12-29T17:59:20.963Z,2.27
2017-12-29T18:01:48.430Z,2.20
2017-12-29T18:04:15.878Z,2.37
2017-12-29T18:06:43.338Z,1.53
2017-12-29T18:09:10.782Z,1.67
2017-12-29T18:11:38.233Z,1.93
2017-12-29T18:14:05.674Z,1.40
2017-12-29T18:16:33.139Z,1.97
2017-12-29T18:19:00.585Z,1.83
2017-12-29T18:21:28.070Z,1.30
2017-12-29T18:23:55.509Z,1.30
2017-12-29T18:26:22.979Z,1.23
2017-12-29T18:28:50.428Z,1.30
2017-12-29T18:31:17.904Z,1.00
2017-12-29T18:33:45.352Z,1.40
2017-12-29T18:36:12.810Z,1.67
2017-12-29T18:38:40.250Z,3.37
2017-12-29T18:41:07.726Z,2.70
2017-12-29T18:43:35.165Z,1.50
2017-12-29T18:46:02.631Z,1.53
2017-12-29T18:48:30.094Z,1.60
2017-12-29T18:50:57.549Z,1.37
2017-12-29T18:53:25.026Z,1.33
2017-12-29T18:55:52.467Z,1.20
2017-12-29T18:58:19.930Z,1.47
2017-12-29T19:00:47.373Z,0.80
2017-12-29T19:03:14.850Z,1.43
2017-12-29T19:05:42.297Z,1.10
2017-12-29T19:08:09.757Z,1.30
2017-12-29T19:10:37.202Z,3.53
2017-12-29T19:13:04.666Z,1.80
2017-12-29T19:15:32.121Z,1.23
2017-12-29T19:17:59.589Z,1.80
2017-12-29T19:20:27.035Z,1.53
2017-12-29T19:22:54.498Z,1.67
2017-12-29T19:25:21.943Z,1.70
2017-12-29T19:27:49.417Z,1.50
2017-12-29T19:30:16.866Z,1.57
2017-12-29T19:32:44.344Z,1.00
2017-12-29T19:35:11.790Z,0.77
2017-12-29T19:37:39.254Z,1.43
2017-12-29T19:40:06.693Z,1.03
2017-12-29T19:42:34.155Z,1.07
2017-12-29T19:45:01.595Z,1.43
2017-12-29T19:47:29.053Z,0.97
2017-12-29T19:49:56.506Z,1.27
2017-12-29T19:52:23.966Z,1.03
2017-12-29T19:54:51.430Z,0.80
2017-12-29T19:57:18.894Z,1.20
2017-12-29T19:59:46.347Z,1.40
2017-12-29T20:02:13.818Z,1.03
2017-12-29T20:04:41.259Z,2.17
2017-12-29T20:07:08.702Z,2.47
2017-12-29T20:09:36.153Z,1.20
2017-12-29T20:12:03.594Z,1.23
2017-12-29T20:14:31.051Z,1.07
2017-12-29T20:16:58.494Z,2.63
2017-12-29T20:19:25.958Z,1.53
2017-12-29T20:21:53.398Z,1.20
2017-12-29T20:24:21.745Z,2.20
2017-12-29T20:26:49.189Z,3.20
2017-12-29T20:29:16.653Z,3.80
2017-12-29T20:31:44.093Z,4.10
2017-12-29T20:34:11.555Z,3.27
2017-12-29T20:36:38.995Z,6.60
2017-12-29T20:39:06.453Z,6.07
2017-12-29T20:41:33.896Z,6.17
2017-12-29T20:44:01.372Z,5.20
2017-12-29T20:46:28.815Z,5.33
2017-12-29T20:48:56.277Z,8.07
2017-12-29T20:51:23.717Z,5.97
2017-12-29T20:53:51.177Z,7.47
2017-12-29T20:56:18.618Z,7.13
2017-12-29T20:58:46.075Z,7.90
2017-12-29T21:01:13.513Z,6.63
2017-12-29T21:03:40.982Z,8.77
2017-12-29T21:06:08.422Z,8.60
2017-12-29T21:08:35.883Z,8.57
2017-12-29T21:11:03.326Z,9.37
2017-12-29T21:13:30.794Z,7.63
2017-12-29T21:15:58.288Z,7.27
2017-12-29T21:18:25.732Z,8.17
2017-12-29T21:20:53.171Z,8.50
2017-12-29T21:23:20.626Z,7.57
2017-12-29T21:25:48.069Z,7.50
2017-12-29T21:28:15.543Z,8.43
2017-12-29T21:30:42.989Z,11.37
2017-12-29T21:33:10.465Z,11.70
2017-12-29T21:35:37.925Z,8.53
2017-12-29T21:38:05.370Z,12.90
2017-12-29T21:40:32.833Z,10.23
2017-12-29T21:43:00.282Z,10.03
2017-12-29T21:45:27.765Z,11.07
2017-12-29T21:47:55.218Z,8.97
2017-12-29T21:50:22.683Z,10.20
2017-12-29T21:52:50.130Z,9.07
2017-12-29T21:55:17.601Z,10.00
2017-12-29T21:57:45.051Z,10.07
2017-12-29T22:00:12.511Z,9.07
2017-12-29T22:02:39.954Z,8.03
2017-12-29T22:05:07.445Z,12.03
2017-12-29T22:07:34.896Z,9.97
2017-12-29T22:10:02.338Z,13.43
2017-12-29T22:12:29.795Z,8.10
2017-12-29T22:14:57.253Z,8.40
2017-12-29T22:17:24.731Z,9.90
2017-12-29T22:19:52.183Z,8.07
2017-12-29T22:22:19.657Z,10.00
2017-12-29T22:24:47.102Z,7.10
2017-12-29T22:27:14.577Z,10.43
2017-12-29T22:29:42.010Z,8.10
2017-12-29T22:32:09.456Z,10.17
2017-12-29T22:34:36.923Z,7.80
2017-12-29T22:37:04.375Z,9.37
2017-12-29T22:39:31.852Z,10.97
2017-12-29T22:41:59.306Z,8.97
2017-12-29T22:44:26.770Z,7.87
2017-12-29T22:46:54.238Z,9.43
2017-12-29T22:49:21.717Z,11.47
2017-12-29T22:51:49.166Z,9.53
2017-12-29T22:54:16.639Z,8.47
2017-12-29T22:56:44.081Z,7.53
2017-12-29T22:59:11.537Z,9.87
2017-12-29T23:01:38.997Z,9.67
2017-12-29T23:04:06.434Z,9.87
2017-12-29T23:06:33.897Z,8.60
2017-12-29T23:09:01.363Z,6.60
2017-12-29T23:11:28.829Z,13.40
2017-12-29T23:13:56.268Z,9.83
2017-12-29T23:16:23.730Z,8.67
2017-12-29T23:18:51.170Z,11.07
2017-12-29T23:21:18.637Z,9.53
2017-12-29T23:23:46.086Z,10.53
2017-12-29T23:26:13.531Z,15.40
2017-12-29T23:28:40.994Z,10.20
2017-12-29T23:31:08.437Z,9.90
2017-12-29T23:33:35.910Z,9.97
2017-12-29T23:36:03.355Z,9.50
2017-12-29T23:38:30.818Z,7.97
2017-12-29T23:40:58.261Z,7.77
2017-12-29T23:43:25.730Z,10.93
2017-12-29T23:45:53.175Z,7.27
2017-12-29T23:48:20.618Z,14.57
2017-12-29T23:50:48.078Z,8.97
2017-12-29T23:53:15.522Z,15.27
2017-12-29T23:55:42.987Z,8.70
2017-12-29T23:58:10.441Z,11.97
